createdAt,value
2023-03-29T00:00:47.680Z,97500.06
2023-03-29T00:03:14.384Z,97489.81
2023-03-29T00:05:40.971Z,97488.56
2023-03-29T00:08:07.826Z,97498.53
2023-03-29T00:10:34.362Z,97516.03
2023-03-29T00:13:01.005Z,97516.28
2023-03-29T00:15:27.405Z,97511.88
2023-03-29T00:17:53.894Z,97503.47
2023-03-29T00:20:20.366Z,97505.75
2023-03-29T00:22:46.869Z,97507.28
2023-03-29T00:25:13.546Z,97511.13
2023-03-29T00:27:40.075Z,97519.69
2023-03-29T00:30:06.937Z,97515.47
2023-03-29T00:32:33.584Z,97497.94
2023-03-29T00:35:00.039Z,97497.13
2023-03-29T00:37:26.859Z,97496.91
2023-03-29T00:39:53.304Z,97509.06
2023-03-29T00:42:19.713Z,97508.63
2023-03-29T00:44:53.770Z,97520.31
2023-03-29T00:47:21.032Z,97516.22
2023-03-29T00:49:47.521Z,97494.09
2023-03-29T00:52:14.171Z,97526.97
2023-03-29T00:54:40.723Z,97512.78
2023-03-29T00:57:07.186Z,97488.88
2023-03-29T00:59:33.757Z,97495.66
2023-03-29T01:02:01.021Z,97475.13
2023-03-29T01:04:44.884Z,97499.19
2023-03-29T01:07:30.257Z,97493.72
2023-03-29T01:10:01.140Z,97478.63
2023-03-29T01:12:32.759Z,97502.97
2023-03-29T01:15:03.724Z,97470.47
2023-03-29T01:17:30.182Z,97488.31
2023-03-29T01:20:01.500Z,97479.06
2023-03-29T01:22:33.022Z,97456.59
2023-03-29T01:25:06.791Z,97470.41
2023-03-29T01:27:33.364Z,97474.13
2023-03-29T01:30:03.693Z,97453.28
2023-03-29T01:32:33.956Z,97476.63
2023-03-29T01:35:20.723Z,97463.66
2023-03-29T01:37:55.326Z,97465.72
2023-03-29T01:40:21.846Z,97455.69
2023-03-29T01:42:57.042Z,97450.69
2023-03-29T01:45:42.273Z,97461.31
2023-03-29T01:48:14.984Z,97442.03
2023-03-29T01:50:42.446Z,97451.19
2023-03-29T01:53:10.708Z,97420.56
2023-03-29T01:55:40.446Z,97422.41
2023-03-29T01:58:06.978Z,97421.28
2023-03-29T02:00:33.378Z,97390.59
2023-03-29T02:03:01.090Z,97402.66
2023-03-29T02:05:28.504Z,97409.81
2023-03-29T02:07:55.012Z,97388.88
2023-03-29T02:10:21.738Z,97416.75
2023-03-29T02:12:48.188Z,97404.94
2023-03-29T02:15:15.674Z,97406.13
2023-03-29T02:17:42.389Z,97402.09
2023-03-29T02:20:08.880Z,97397.09
2023-03-29T02:22:37.245Z,97403.59
2023-03-29T02:25:03.896Z,97381.34
2023-03-29T02:27:30.369Z,97380.19
2023-03-29T02:29:56.815Z,97365.16
2023-03-29T02:32:31.834Z,97384.25
2023-03-29T02:34:59.122Z,97349.06
2023-03-29T02:37:25.629Z,97355.53
2023-03-29T02:39:52.173Z,97387.94
2023-03-29T02:42:18.564Z,97389.00
2023-03-29T02:44:45.033Z,97382.97
2023-03-29T02:47:19.823Z,97380.09
2023-03-29T02:49:46.351Z,97389.44
2023-03-29T02:52:14.395Z,97362.94
2023-03-29T02:54:40.981Z,97378.34
2023-03-29T02:57:07.538Z,97369.19
2023-03-29T02:59:34.182Z,97375.91
2023-03-29T03:02:00.996Z,97376.59
2023-03-29T03:04:27.524Z,97349.63
2023-03-29T03:06:53.992Z,97384.91
2023-03-29T03:09:20.489Z,97368.00
2023-03-29T03:11:47.029Z,97378.03
2023-03-29T03:14:13.406Z,97379.28
2023-03-29T03:16:39.894Z,97365.16
2023-03-29T03:19:06.597Z,97396.03
2023-03-29T03:21:33.140Z,97390.84
2023-03-29T03:23:59.811Z,97363.47
2023-03-29T03:26:26.315Z,97368.16
2023-03-29T03:28:52.762Z,97364.22
2023-03-29T03:31:19.255Z,97357.63
2023-03-29T03:33:45.734Z,97339.00
2023-03-29T03:36:12.221Z,97367.47
2023-03-29T03:38:38.707Z,97349.31
2023-03-29T03:41:05.758Z,97353.22
2023-03-29T03:43:32.600Z,97358.53
2023-03-29T03:45:59.076Z,97323.41
2023-03-29T03:48:25.807Z,97315.97
2023-03-29T03:50:52.990Z,97310.28
2023-03-29T03:53:19.668Z,97329.16
2023-03-29T03:55:49.593Z,97322.78
2023-03-29T03:58:16.338Z,97312.06
2023-03-29T04:00:42.882Z,97317.44
2023-03-29T04:03:09.675Z,97298.75
2023-03-29T04:05:39.908Z,97332.72
2023-03-29T04:08:06.452Z,97328.69
2023-03-29T04:10:33.115Z,97332.53
2023-03-29T04:12:59.943Z,97320.22
2023-03-29T04:15:26.516Z,97320.22
2023-03-29T04:17:53.238Z,97310.31
2023-03-29T04:20:19.854Z,97304.91
2023-03-29T04:22:46.333Z,97302.25
2023-03-29T04:25:12.830Z,97294.97
2023-03-29T04:27:39.470Z,97305.59
2023-03-29T04:30:06.393Z,97276.38
2023-03-29T04:32:33.440Z,97303.88
2023-03-29T04:34:59.973Z,97287.81
2023-03-29T04:37:26.425Z,97304.38
2023-03-29T04:39:52.927Z,97297.31
2023-03-29T04:42:19.446Z,97279.75
2023-03-29T04:44:45.928Z,97290.94
2023-03-29T04:47:12.515Z,97301.38
2023-03-29T04:49:39.372Z,97291.09
2023-03-29T04:52:05.848Z,97282.88
2023-03-29T04:54:32.364Z,97282.88
2023-03-29T04:56:58.840Z,97288.19
2023-03-29T04:59:25.342Z,97284.16
2023-03-29T05:01:52.211Z,97274.53
2023-03-29T05:04:18.734Z,97284.25
2023-03-29T05:06:45.300Z,97289.94
2023-03-29T05:09:11.802Z,97290.28
2023-03-29T05:11:38.209Z,97279.53
2023-03-29T05:14:04.613Z,97286.81
2023-03-29T05:16:31.178Z,97317.94
2023-03-29T05:18:58.011Z,97312.94
2023-03-29T05:21:24.504Z,97296.25
2023-03-29T05:23:50.967Z,97296.84
2023-03-29T05:26:17.434Z,97311.56
2023-03-29T05:28:43.793Z,97290.50
2023-03-29T05:31:10.286Z,97288.06
2023-03-29T05:33:36.842Z,97290.94
2023-03-29T05:36:07.377Z,97285.41
2023-03-29T05:38:34.089Z,97299.06
2023-03-29T05:41:00.952Z,97304.84
2023-03-29T05:43:28.037Z,97308.34
2023-03-29T05:45:54.769Z,97287.19
2023-03-29T05:48:21.665Z,97283.25
2023-03-29T05:50:49.258Z,97278.38
2023-03-29T05:53:16.071Z,97286.50
2023-03-29T05:55:42.555Z,97287.41
2023-03-29T05:58:09.342Z,97273.19
2023-03-29T06:00:36.129Z,97237.19
2023-03-29T06:03:13.609Z,97271.66
2023-03-29T06:05:45.869Z,97273.06
2023-03-29T06:08:14.337Z,97254.91
2023-03-29T06:10:41.146Z,97255.47
2023-03-29T06:13:07.672Z,97255.25
2023-03-29T06:15:34.264Z,97257.53
2023-03-29T06:18:03.871Z,97258.22
2023-03-29T06:20:31.565Z,97261.69
2023-03-29T06:22:58.101Z,97246.03
2023-03-29T06:25:24.658Z,97259.56
2023-03-29T06:27:51.144Z,97262.56
2023-03-29T06:30:17.635Z,97265.78
2023-03-29T06:32:44.194Z,97255.47
2023-03-29T06:35:10.862Z,97276.97
2023-03-29T06:37:37.533Z,97266.91
2023-03-29T06:40:04.423Z,97280.31
2023-03-29T06:42:30.854Z,97266.19
2023-03-29T06:44:57.338Z,97271.72
2023-03-29T06:47:23.813Z,97263.72
2023-03-29T06:49:50.265Z,97265.97
2023-03-29T06:52:17.008Z,97263.38
2023-03-29T06:54:43.483Z,97276.75
2023-03-29T06:57:09.952Z,97280.09
2023-03-29T06:59:36.512Z,97260.38
2023-03-29T07:02:03.131Z,97277.41
2023-03-29T07:04:29.801Z,97256.44
2023-03-29T07:06:56.280Z,97298.09
2023-03-29T07:09:22.840Z,97290.34
2023-03-29T07:11:49.261Z,97257.38
2023-03-29T07:14:15.810Z,97258.03
2023-03-29T07:16:42.306Z,97248.50
2023-03-29T07:19:08.814Z,97275.19
2023-03-29T07:21:36.690Z,97280.84
2023-03-29T07:24:04.452Z,97292.31
2023-03-29T07:26:30.947Z,97283.72
2023-03-29T07:28:57.520Z,97272.75
2023-03-29T07:31:23.987Z,97260.16
2023-03-29T07:33:50.402Z,97284.66
2023-03-29T07:36:17.014Z,97286.91
2023-03-29T07:38:43.519Z,97276.31
2023-03-29T07:41:10.555Z,97290.69
2023-03-29T07:43:37.186Z,97289.41
2023-03-29T07:46:03.992Z,97286.25
2023-03-29T07:48:30.812Z,97293.38
2023-03-29T07:50:57.350Z,97320.88
2023-03-29T07:53:23.938Z,97299.53
2023-03-29T07:55:50.390Z,97291.44
2023-03-29T07:58:16.742Z,97308.72
2023-03-29T08:00:43.230Z,97286.16
2023-03-29T08:03:12.722Z,97284.28
2023-03-29T08:05:41.715Z,97266.94
2023-03-29T08:08:08.905Z,97280.03
2023-03-29T08:10:36.208Z,97290.19
2023-03-29T08:13:04.173Z,97270.63
2023-03-29T08:15:30.635Z,97264.09
2023-03-29T08:17:57.133Z,97280.25
2023-03-29T08:20:23.624Z,97283.66
2023-03-29T08:22:50.199Z,97276.53
2023-03-29T08:25:16.626Z,97278.59
2023-03-29T08:27:43.015Z,97275.28
2023-03-29T08:30:09.647Z,97288.06
2023-03-29T08:32:36.717Z,97272.25
2023-03-29T08:35:07.946Z,97256.44
2023-03-29T08:37:34.396Z,97273.72
2023-03-29T08:40:01.027Z,97290.69
2023-03-29T08:42:33.453Z,97291.91
2023-03-29T08:45:06.088Z,97261.03
2023-03-29T08:47:50.836Z,97249.94
2023-03-29T08:50:17.482Z,97291.34
2023-03-29T08:52:49.030Z,97273.94
2023-03-29T08:55:19.544Z,97283.50
2023-03-29T08:57:46.626Z,97280.16
2023-03-29T09:00:25.851Z,97266.69
2023-03-29T09:02:52.377Z,97264.03
2023-03-29T09:05:18.835Z,97277.75
2023-03-29T09:07:45.457Z,97285.28
2023-03-29T09:10:13.450Z,97302.97
2023-03-29T09:12:50.453Z,97271.31
2023-03-29T09:15:24.260Z,97290.03
2023-03-29T09:17:53.504Z,97263.16
2023-03-29T09:20:35.233Z,97277.34
2023-03-29T09:23:05.121Z,97291.00
2023-03-29T09:25:52.541Z,97261.13
2023-03-29T09:28:21.571Z,97279.41
2023-03-29T09:30:51.334Z,97277.25
2023-03-29T09:33:40.162Z,97282.91
2023-03-29T09:36:06.865Z,97273.47
2023-03-29T09:38:33.658Z,97279.41
2023-03-29T09:41:02.854Z,97274.47
2023-03-29T09:43:33.435Z,97269.44
2023-03-29T09:46:01.391Z,97259.28
2023-03-29T09:48:27.914Z,97267.38
2023-03-29T09:50:54.316Z,97261.47
2023-03-29T09:53:20.788Z,97252.28
2023-03-29T09:55:50.244Z,97240.75
2023-03-29T09:58:19.956Z,97237.53
2023-03-29T10:00:46.514Z,97229.13
2023-03-29T10:03:19.685Z,97262.66
2023-03-29T10:05:46.226Z,97265.94
2023-03-29T10:08:16.114Z,97267.41
2023-03-29T10:10:43.627Z,97253.38
2023-03-29T10:13:13.323Z,97238.53
2023-03-29T10:15:39.814Z,97227.06
2023-03-29T10:18:07.186Z,97230.56
2023-03-29T10:20:36.901Z,97235.00
2023-03-29T10:23:05.029Z,97211.44
2023-03-29T10:25:31.854Z,97208.00
2023-03-29T10:28:08.214Z,97216.66
2023-03-29T10:30:36.743Z,97209.41
2023-03-29T10:33:03.342Z,97211.84
2023-03-29T10:35:30.840Z,97214.53
2023-03-29T10:37:57.791Z,97211.59
2023-03-29T10:40:30.860Z,97219.91
2023-03-29T10:43:00.936Z,97218.66
2023-03-29T10:45:28.462Z,97212.31
2023-03-29T10:47:55.459Z,97212.63
2023-03-29T10:50:22.029Z,97194.97
2023-03-29T10:52:48.546Z,97194.16
2023-03-29T10:55:15.052Z,97215.25
2023-03-29T10:57:41.660Z,97209.22
2023-03-29T11:00:28.315Z,97213.09
2023-03-29T11:03:04.852Z,97185.78
2023-03-29T11:05:40.450Z,97192.47
2023-03-29T11:08:25.149Z,97213.50
2023-03-29T11:11:00.766Z,97223.16
2023-03-29T11:13:46.411Z,97223.97
2023-03-29T11:16:17.027Z,97225.94
2023-03-29T11:18:55.652Z,97212.56
2023-03-29T11:21:36.327Z,97196.53
2023-03-29T11:24:21.836Z,97189.09
2023-03-29T11:27:08.184Z,97164.28
2023-03-29T11:29:46.725Z,97196.44
2023-03-29T11:32:19.746Z,97182.97
2023-03-29T11:35:05.199Z,97190.13
2023-03-29T11:37:43.206Z,97191.88
2023-03-29T11:40:28.347Z,97170.47
2023-03-29T11:42:55.232Z,97186.84
2023-03-29T11:45:27.417Z,97180.47
2023-03-29T11:47:53.946Z,97180.06
2023-03-29T11:50:24.577Z,97182.72
2023-03-29T11:52:51.016Z,97180.69
2023-03-29T11:55:21.880Z,97199.91
2023-03-29T11:57:51.509Z,97191.50
2023-03-29T12:00:18.943Z,97185.53
2023-03-29T12:02:46.433Z,97169.19
2023-03-29T12:05:23.262Z,97176.22
2023-03-29T12:07:59.020Z,97191.06
2023-03-29T12:10:30.859Z,97183.34
2023-03-29T12:13:00.979Z,97160.44
2023-03-29T12:15:28.557Z,97166.78
2023-03-29T12:18:01.010Z,97162.22
2023-03-29T12:20:28.746Z,97167.59
2023-03-29T12:22:55.222Z,97170.16
2023-03-29T12:25:31.636Z,97162.41
2023-03-29T12:28:12.254Z,97164.19
2023-03-29T12:30:47.030Z,97123.13
2023-03-29T12:33:15.775Z,97150.22
2023-03-29T12:35:49.016Z,97154.16
2023-03-29T12:38:21.801Z,97142.94
2023-03-29T12:40:48.920Z,97148.31
2023-03-29T12:43:16.805Z,97149.03
2023-03-29T12:45:43.981Z,97107.91
2023-03-29T12:48:14.986Z,97122.34
2023-03-29T12:50:46.157Z,97122.41
2023-03-29T12:53:12.539Z,97132.34
2023-03-29T12:55:41.683Z,97140.59
2023-03-29T12:58:20.905Z,97134.69
2023-03-29T13:00:47.386Z,97136.50
2023-03-29T13:03:32.677Z,97134.50
2023-03-29T13:06:02.714Z,97147.00
2023-03-29T13:08:36.724Z,97142.78
2023-03-29T13:11:03.816Z,97136.66
2023-03-29T13:13:33.870Z,97114.31
2023-03-29T13:16:13.857Z,97128.22
2023-03-29T13:18:44.271Z,97119.91
2023-03-29T13:21:13.680Z,97138.81
2023-03-29T13:23:59.091Z,97126.69
2023-03-29T13:26:25.661Z,97133.47
2023-03-29T13:28:52.141Z,97142.50
2023-03-29T13:31:31.023Z,97126.59
2023-03-29T13:34:00.888Z,97112.00
2023-03-29T13:36:27.247Z,97120.38
2023-03-29T13:38:53.834Z,97123.59
2023-03-29T13:41:38.639Z,97112.28
2023-03-29T13:44:16.670Z,97102.25
2023-03-29T13:46:43.479Z,97144.63
2023-03-29T13:49:14.876Z,97115.69
2023-03-29T13:51:42.150Z,97111.41
2023-03-29T13:54:27.464Z,97111.53
2023-03-29T13:56:58.943Z,97093.25
2023-03-29T13:59:30.897Z,97092.88
2023-03-29T14:01:57.927Z,97126.09
2023-03-29T14:04:25.444Z,97067.81
2023-03-29T14:06:52.865Z,97092.75
2023-03-29T14:09:19.931Z,97093.34
2023-03-29T14:11:46.510Z,97104.47
2023-03-29T14:14:13.076Z,97101.06
2023-03-29T14:16:39.935Z,97097.75
2023-03-29T14:19:07.650Z,97082.53
2023-03-29T14:21:34.069Z,97069.44
2023-03-29T14:24:01.146Z,97056.16
2023-03-29T14:26:31.298Z,97059.13
2023-03-29T14:28:58.559Z,97083.59
2023-03-29T14:31:25.805Z,97109.25
2023-03-29T14:33:52.670Z,97077.59
2023-03-29T14:36:19.207Z,97117.88
2023-03-29T14:38:47.607Z,97098.75
2023-03-29T14:41:14.029Z,97091.56
2023-03-29T14:43:40.459Z,97095.13
2023-03-29T14:46:07.063Z,97082.94
2023-03-29T14:48:33.613Z,97107.28
2023-03-29T14:51:00.138Z,97088.66
2023-03-29T14:53:26.712Z,97099.78
2023-03-29T14:55:54.370Z,97076.28
2023-03-29T14:58:20.754Z,97093.84
2023-03-29T15:00:48.105Z,97084.59
2023-03-29T15:03:14.889Z,97079.00
2023-03-29T15:05:41.926Z,97072.75
2023-03-29T15:08:10.180Z,97073.91
2023-03-29T15:10:36.745Z,97064.31
2023-03-29T15:13:04.324Z,97085.34
2023-03-29T15:15:31.793Z,97039.88
2023-03-29T15:17:58.278Z,97059.78
2023-03-29T15:20:25.546Z,97071.03
2023-03-29T15:23:01.834Z,97067.63
2023-03-29T15:25:32.492Z,97039.09
2023-03-29T15:28:00.993Z,97066.34
2023-03-29T15:30:35.081Z,97060.63
2023-03-29T15:33:14.696Z,97044.69
2023-03-29T15:35:41.403Z,97033.31
2023-03-29T15:38:10.442Z,97049.19
2023-03-29T15:40:37.099Z,97051.53
2023-03-29T15:43:03.771Z,97047.19
2023-03-29T15:45:30.225Z,97028.16
2023-03-29T15:47:56.702Z,97037.34
2023-03-29T15:50:23.213Z,97036.94
2023-03-29T15:52:49.592Z,97031.06
2023-03-29T15:55:16.265Z,97048.34
2023-03-29T15:57:42.913Z,97043.69
2023-03-29T16:00:10.319Z,97008.59
2023-03-29T16:02:37.068Z,97018.63
2023-03-29T16:05:03.702Z,97037.88
2023-03-29T16:07:30.143Z,97025.22
2023-03-29T16:09:56.553Z,97009.81
2023-03-29T16:12:22.973Z,97014.66
2023-03-29T16:14:49.510Z,97026.75
2023-03-29T16:17:16.074Z,97016.50
2023-03-29T16:19:42.659Z,96996.03
2023-03-29T16:22:09.110Z,97002.31
2023-03-29T16:24:35.568Z,97011.28
2023-03-29T16:27:02.411Z,97005.59
2023-03-29T16:29:28.816Z,97016.81
2023-03-29T16:31:55.758Z,97010.19
2023-03-29T16:34:22.280Z,97025.59
2023-03-29T16:36:48.800Z,96999.56
2023-03-29T16:39:15.346Z,97008.09
2023-03-29T16:41:42.103Z,96996.16
2023-03-29T16:44:10.796Z,97010.13
2023-03-29T16:46:37.369Z,97003.72
2023-03-29T16:49:04.087Z,97008.31
2023-03-29T16:51:30.478Z,97001.63
2023-03-29T16:53:56.843Z,97002.63
2023-03-29T16:56:23.392Z,96994.41
2023-03-29T16:58:49.881Z,96993.06
2023-03-29T17:01:16.459Z,97008.19
2023-03-29T17:03:43.118Z,96992.25
2023-03-29T17:06:09.902Z,97003.38
2023-03-29T17:08:36.706Z,97008.81
2023-03-29T17:11:04.342Z,97004.38
2023-03-29T17:13:30.869Z,97004.75
2023-03-29T17:15:57.414Z,96981.69
2023-03-29T17:18:24.476Z,97014.59
2023-03-29T17:20:51.131Z,96999.78
2023-03-29T17:23:17.680Z,96996.09
2023-03-29T17:25:44.180Z,97008.81
2023-03-29T17:28:10.772Z,97005.00
2023-03-29T17:30:37.503Z,97006.41
2023-03-29T17:33:04.045Z,96998.16
2023-03-29T17:35:30.616Z,97015.72
2023-03-29T17:37:57.076Z,96986.47
2023-03-29T17:40:23.505Z,97009.41
2023-03-29T17:42:51.770Z,97006.00
2023-03-29T17:45:18.421Z,97012.50
2023-03-29T17:47:44.939Z,97020.03
2023-03-29T17:50:11.810Z,97027.84
2023-03-29T17:52:38.380Z,97014.53
2023-03-29T17:55:05.572Z,96993.59
2023-03-29T17:57:32.036Z,96992.22
2023-03-29T17:59:58.440Z,97021.84
2023-03-29T18:02:25.000Z,97011.38
2023-03-29T18:04:51.560Z,97009.53
2023-03-29T18:07:18.521Z,97024.91
2023-03-29T18:09:45.039Z,97009.72
2023-03-29T18:12:11.444Z,97013.19
2023-03-29T18:14:37.991Z,97007.31
2023-03-29T18:17:04.590Z,97003.34
2023-03-29T18:19:31.131Z,96985.09
2023-03-29T18:21:57.532Z,97036.16
2023-03-29T18:24:24.032Z,97034.28
2023-03-29T18:26:50.833Z,97013.13
2023-03-29T18:29:17.228Z,97034.03
2023-03-29T18:31:43.754Z,97005.31
2023-03-29T18:34:10.368Z,97019.00
2023-03-29T18:36:36.927Z,96997.53
2023-03-29T18:39:03.594Z,97053.13
2023-03-29T18:41:30.108Z,97019.66
2023-03-29T18:43:56.558Z,97031.47
2023-03-29T18:46:23.347Z,97021.88
2023-03-29T18:48:49.828Z,97026.72
2023-03-29T18:51:16.262Z,97016.47
2023-03-29T18:53:42.754Z,97006.22
2023-03-29T18:56:09.226Z,97030.63
2023-03-29T18:58:35.900Z,97048.09
2023-03-29T19:01:02.512Z,97009.53
2023-03-29T19:03:29.086Z,97036.84
2023-03-29T19:05:55.548Z,97018.03
2023-03-29T19:08:22.480Z,97034.16
2023-03-29T19:10:48.854Z,97014.81
2023-03-29T19:13:15.307Z,97018.34
2023-03-29T19:15:41.925Z,97053.47
2023-03-29T19:18:08.389Z,97016.44
2023-03-29T19:20:35.056Z,97016.44
2023-03-29T19:23:01.749Z,97041.66
2023-03-29T19:25:28.520Z,97037.91
2023-03-29T19:27:54.951Z,97046.50
2023-03-29T19:30:21.399Z,97018.84
2023-03-29T19:32:47.838Z,97004.34
2023-03-29T19:35:14.371Z,97001.91
2023-03-29T19:37:40.915Z,97056.94
2023-03-29T19:40:07.791Z,97024.50
2023-03-29T19:42:34.355Z,97004.63
2023-03-29T19:45:00.900Z,97012.13
2023-03-29T19:47:27.288Z,97022.06
2023-03-29T19:49:53.704Z,96988.81
2023-03-29T19:52:20.403Z,97017.28
2023-03-29T19:54:47.134Z,97006.28
2023-03-29T19:57:13.607Z,96999.25
2023-03-29T19:59:40.142Z,97010.53
2023-03-29T20:02:06.649Z,96997.66
2023-03-29T20:04:33.368Z,96983.19
2023-03-29T20:07:00.093Z,96972.69
2023-03-29T20:09:26.554Z,96985.25
2023-03-29T20:11:53.023Z,96982.06
2023-03-29T20:14:19.614Z,96995.50
2023-03-29T20:16:46.520Z,96976.69
2023-03-29T20:19:13.017Z,96983.88
2023-03-29T20:21:39.617Z,97011.56
2023-03-29T20:24:06.168Z,96986.59
2023-03-29T20:26:32.646Z,96995.72
2023-03-29T20:28:59.229Z,96994.06
2023-03-29T20:31:25.716Z,96981.44
2023-03-29T20:33:52.140Z,96980.41
2023-03-29T20:36:18.766Z,96954.09
2023-03-29T20:38:45.323Z,96988.44
2023-03-29T20:41:11.733Z,97008.31
2023-03-29T20:43:38.236Z,96972.69
2023-03-29T20:46:05.049Z,96978.34
2023-03-29T20:48:31.538Z,96976.19
2023-03-29T20:50:58.002Z,96996.59
2023-03-29T20:53:24.389Z,96994.97
2023-03-29T20:55:50.787Z,96987.50
2023-03-29T20:58:17.219Z,96989.94
2023-03-29T21:00:43.789Z,96993.94
2023-03-29T21:03:10.376Z,96998.78
2023-03-29T21:05:37.038Z,96981.63
2023-03-29T21:08:03.458Z,96948.63
2023-03-29T21:10:29.833Z,96963.38
2023-03-29T21:12:56.243Z,96975.47
2023-03-29T21:15:22.787Z,96983.78
2023-03-29T21:17:49.265Z,96974.13
2023-03-29T21:20:15.884Z,96985.38
2023-03-29T21:22:42.417Z,96966.88
2023-03-29T21:25:09.300Z,97011.41
2023-03-29T21:27:35.938Z,96991.84
2023-03-29T21:30:03.104Z,97004.19
2023-03-29T21:32:29.924Z,96999.88
2023-03-29T21:34:56.495Z,96989.44
2023-03-29T21:37:23.048Z,96982.75
2023-03-29T21:39:49.485Z,96996.69
2023-03-29T21:42:16.084Z,96953.81
2023-03-29T21:44:42.571Z,96951.97
2023-03-29T21:47:09.044Z,96944.44
2023-03-29T21:49:35.553Z,96937.75
2023-03-29T21:52:01.968Z,96933.72
2023-03-29T21:54:28.376Z,96931.56
2023-03-29T21:56:54.963Z,96906.91
2023-03-29T21:59:21.332Z,96937.19
2023-03-29T22:01:47.936Z,96914.13
2023-03-29T22:04:22.604Z,96915.22
2023-03-29T22:06:55.824Z,96902.56
2023-03-29T22:09:22.274Z,96951.38
2023-03-29T22:11:48.668Z,96919.97
2023-03-29T22:14:15.124Z,96909.81
2023-03-29T22:16:41.754Z,96936.38
2023-03-29T22:19:08.287Z,96918.66
2023-03-29T22:21:34.637Z,96910.91
2023-03-29T22:24:01.098Z,96908.28
2023-03-29T22:26:29.057Z,96910.41
2023-03-29T22:28:55.508Z,96880.88
2023-03-29T22:31:22.298Z,96898.03
2023-03-29T22:33:48.963Z,96896.44
2023-03-29T22:36:19.812Z,96908.22
2023-03-29T22:38:46.562Z,96898.31
2023-03-29T22:41:13.059Z,96877.97
2023-03-29T22:43:39.449Z,96925.72
2023-03-29T22:46:06.286Z,96919.78
2023-03-29T22:48:32.798Z,96916.56
2023-03-29T22:50:59.615Z,96894.88
2023-03-29T22:53:26.207Z,96908.28
2023-03-29T22:55:52.995Z,96925.13
2023-03-29T22:58:19.510Z,96937.19
2023-03-29T23:00:45.975Z,96928.09
2023-03-29T23:03:12.380Z,96913.88
2023-03-29T23:05:38.748Z,96910.66
2023-03-29T23:08:05.249Z,96890.84
2023-03-29T23:10:31.650Z,96858.97
2023-03-29T23:12:58.134Z,96878.81
2023-03-29T23:15:24.597Z,96854.72
2023-03-29T23:17:50.976Z,96858.69
2023-03-29T23:20:17.411Z,96893.28
2023-03-29T23:22:43.951Z,96829.00
2023-03-29T23:25:10.396Z,96819.88
2023-03-29T23:27:36.811Z,96849.34
2023-03-29T23:30:03.333Z,96860.06
2023-03-29T23:32:29.758Z,96829.53
2023-03-29T23:34:56.232Z,96856.31
2023-03-29T23:37:22.719Z,96855.28
2023-03-29T23:39:49.197Z,96860.88
2023-03-29T23:42:15.652Z,96856.03
2023-03-29T23:44:42.099Z,96859.53
2023-03-29T23:47:08.782Z,96845.34
2023-03-29T23:49:35.409Z,96853.91
2023-03-29T23:52:02.153Z,96852.81
2023-03-29T23:54:28.654Z,96842.41
2023-03-29T23:56:55.077Z,96835.97
2023-03-29T23:59:21.682Z,96861.16
